sensor_id;sensor_type;location;lat;lon;timestamp;P1;durP1;ratioP1;P2;durP2;ratioP2
6864;SDS011;3471;49.678;8.388;2023-03-01T00:00:12;12.70;;;11.40;;
6864;SDS011;3471;49.678;8.388;2023-03-01T00:02:38;18.25;;;9.25;;
6864;SDS011;3471;49.678;8.388;2023-03-01T00:05:04;22.80;;;13.73;;
6864;SDS011;3471;49.678;8.388;2023-03-01T00:07:30;16.23;;;10.77;;
6864;SDS011;3471;49.678;8.388;2023-03-01T00:09:55;21.65;;;10.98;;
6864;SDS011;3471;49.678;8.388;2023-03-01T00:12:21;17.27;;;12.17;;
6864;SDS011;3471;49.678;8.388;2023-03-01T00:14:47;20.02;;;11.18;;
6864;SDS011;3471;49.678;8.388;2023-03-01T00:17:12;16.03;;;13.53;;
6864;SDS011;3471;49.678;8.388;2023-03-01T00:19:38;16.77;;;12.20;;
6864;SDS011;3471;49.678;8.388;2023-03-01T00:22:04;16.92;;;11.80;;
6864;SDS011;3471;49.678;8.388;2023-03-01T00:24:29;12.73;;;10.70;;
6864;SDS011;3471;49.678;8.388;2023-03-01T00:26:55;12.90;;;11.68;;
6864;SDS011;3471;49.678;8.388;2023-03-01T00:29:22;15.10;;;11.50;;
6864;SDS011;3471;49.678;8.388;2023-03-01T00:31:48;13.00;;;11.60;;
6864;SDS011;3471;49.678;8.388;2023-03-01T00:34:14;22.42;;;11.02;;
6864;SDS011;3471;49.678;8.388;2023-03-01T00:36:39;12.23;;;10.40;;
6864;SDS011;3471;49.678;8.388;2023-03-01T00:39:07;18.10;;;12.32;;
6864;SDS011;3471;49.678;8.388;2023-03-01T00:41:36;15.35;;;11.98;;
6864;SDS011;3471;49.678;8.388;2023-03-01T00:44:01;31.33;;;13.50;;
6864;SDS011;3471;49.678;8.388;2023-03-01T00:46:27;16.98;;;11.52;;
6864;SDS011;3471;49.678;8.388;2023-03-01T00:48:55;13.20;;;11.30;;
6864;SDS011;3471;49.678;8.388;2023-03-01T00:51:22;25.77;;;12.50;;
6864;SDS011;3471;49.678;8.388;2023-03-01T00:53:51;19.85;;;12.80;;
6864;SDS011;3471;49.678;8.388;2023-03-01T00:56:23;19.52;;;11.77;;
6864;SDS011;3471;49.678;8.388;2023-03-01T00:58:49;14.27;;;12.45;;
6864;SDS011;3471;49.678;8.388;2023-03-01T01:01:18;12.90;;;11.48;;
6864;SDS011;3471;49.678;8.388;2023-03-01T01:03:49;17.55;;;12.20;;
6864;SDS011;3471;49.678;8.388;2023-03-01T01:06:22;18.08;;;11.73;;
6864;SDS011;3471;49.678;8.388;2023-03-01T01:08:49;15.13;;;12.68;;
6864;SDS011;3471;49.678;8.388;2023-03-01T01:11:16;13.55;;;11.05;;
6864;SDS011;3471;49.678;8.388;2023-03-01T01:13:43;22.55;;;12.88;;
6864;SDS011;3471;49.678;8.388;2023-03-01T01:16:10;13.80;;;12.15;;
6864;SDS011;3471;49.678;8.388;2023-03-01T01:18:36;17.73;;;15.25;;
6864;SDS011;3471;49.678;8.388;2023-03-01T01:21:08;21.33;;;14.73;;
6864;SDS011;3471;49.678;8.388;2023-03-01T01:23:36;28.63;;;14.63;;
6864;SDS011;3471;49.678;8.388;2023-03-01T01:26:03;15.98;;;12.25;;
6864;SDS011;3471;49.678;8.388;2023-03-01T01:28:40;29.33;;;14.85;;
6864;SDS011;3471;49.678;8.388;2023-03-01T01:31:05;16.75;;;14.07;;
6864;SDS011;3471;49.678;8.388;2023-03-01T01:33:31;14.93;;;13.43;;
6864;SDS011;3471;49.678;8.388;2023-03-01T01:35:57;15.50;;;12.40;;
6864;SDS011;3471;49.678;8.388;2023-03-01T01:38:23;18.80;;;12.33;;
6864;SDS011;3471;49.678;8.388;2023-03-01T01:40:49;17.58;;;14.57;;
6864;SDS011;3471;49.678;8.388;2023-03-01T01:43:20;20.10;;;13.30;;
6864;SDS011;3471;49.678;8.388;2023-03-01T01:45:46;20.25;;;12.65;;
6864;SDS011;3471;49.678;8.388;2023-03-01T01:48:13;20.90;;;15.45;;
6864;SDS011;3471;49.678;8.388;2023-03-01T01:50:43;21.98;;;14.50;;
6864;SDS011;3471;49.678;8.388;2023-03-01T01:53:11;14.32;;;11.35;;
6864;SDS011;3471;49.678;8.388;2023-03-01T01:55:41;18.42;;;13.35;;
6864;SDS011;3471;49.678;8.388;2023-03-01T01:58:11;20.85;;;11.32;;
6864;SDS011;3471;49.678;8.388;2023-03-01T02:00:40;16.48;;;13.23;;
6864;SDS011;3471;49.678;8.388;2023-03-01T02:03:08;24.07;;;14.90;;
6864;SDS011;3471;49.678;8.388;2023-03-01T02:08:34;18.77;;;14.43;;
6864;SDS011;3471;49.678;8.388;2023-03-01T02:11:02;17.33;;;14.05;;
6864;SDS011;3471;49.678;8.388;2023-03-01T02:13:34;17.67;;;13.93;;
6864;SDS011;3471;49.678;8.388;2023-03-01T02:16:09;18.75;;;14.32;;
6864;SDS011;3471;49.678;8.388;2023-03-01T02:18:38;18.20;;;13.43;;
6864;SDS011;3471;49.678;8.388;2023-03-01T02:23:35;15.98;;;13.00;;
6864;SDS011;3471;49.678;8.388;2023-03-01T02:28:39;19.80;;;15.18;;
6864;SDS011;3471;49.678;8.388;2023-03-01T02:31:08;21.92;;;11.80;;
6864;SDS011;3471;49.678;8.388;2023-03-01T02:33:53;18.92;;;13.70;;
6864;SDS011;3471;49.678;8.388;2023-03-01T02:36:29;20.08;;;14.20;;
6864;SDS011;3471;49.678;8.388;2023-03-01T02:38:59;25.63;;;16.27;;
6864;SDS011;3471;49.678;8.388;2023-03-01T02:41:28;19.25;;;13.68;;
6864;SDS011;3471;49.678;8.388;2023-03-01T02:43:55;19.40;;;12.88;;
6864;SDS011;3471;49.678;8.388;2023-03-01T02:46:23;17.55;;;13.52;;
6864;SDS011;3471;49.678;8.388;2023-03-01T02:48:54;19.92;;;13.68;;
6864;SDS011;3471;49.678;8.388;2023-03-01T02:54:22;20.13;;;13.60;;
6864;SDS011;3471;49.678;8.388;2023-03-01T02:56:52;19.33;;;13.98;;
6864;SDS011;3471;49.678;8.388;2023-03-01T02:59:19;22.17;;;14.50;;
6864;SDS011;3471;49.678;8.388;2023-03-01T03:01:47;21.10;;;14.68;;
6864;SDS011;3471;49.678;8.388;2023-03-01T03:04:14;18.83;;;15.27;;
6864;SDS011;3471;49.678;8.388;2023-03-01T03:06:45;17.70;;;14.13;;
6864;SDS011;3471;49.678;8.388;2023-03-01T03:09:13;20.08;;;15.65;;
6864;SDS011;3471;49.678;8.388;2023-03-01T03:11:39;22.75;;;15.20;;
6864;SDS011;3471;49.678;8.388;2023-03-01T03:14:06;25.27;;;16.70;;
6864;SDS011;3471;49.678;8.388;2023-03-01T03:16:39;21.38;;;14.02;;
6864;SDS011;3471;49.678;8.388;2023-03-01T03:19:05;19.08;;;14.52;;
6864;SDS011;3471;49.678;8.388;2023-03-01T03:21:31;20.10;;;15.20;;
6864;SDS011;3471;49.678;8.388;2023-03-01T03:23:58;17.00;;;15.02;;
6864;SDS011;3471;49.678;8.388;2023-03-01T03:26:24;21.45;;;15.32;;
6864;SDS011;3471;49.678;8.388;2023-03-01T03:28:49;21.23;;;15.15;;
6864;SDS011;3471;49.678;8.388;2023-03-01T03:31:15;24.07;;;13.93;;
6864;SDS011;3471;49.678;8.388;2023-03-01T03:33:41;18.20;;;14.73;;
6864;SDS011;3471;49.678;8.388;2023-03-01T03:36:06;20.33;;;13.35;;
6864;SDS011;3471;49.678;8.388;2023-03-01T03:38:37;17.08;;;14.05;;
6864;SDS011;3471;49.678;8.388;2023-03-01T03:41:05;22.75;;;15.40;;
6864;SDS011;3471;49.678;8.388;2023-03-01T03:43:33;19.92;;;14.90;;
6864;SDS011;3471;49.678;8.388;2023-03-01T03:46:00;20.17;;;15.05;;
6864;SDS011;3471;49.678;8.388;2023-03-01T03:48:30;21.52;;;15.80;;
6864;SDS011;3471;49.678;8.388;2023-03-01T03:50:58;20.60;;;13.23;;
6864;SDS011;3471;49.678;8.388;2023-03-01T03:53:25;19.20;;;13.80;;
6864;SDS011;3471;49.678;8.388;2023-03-01T03:55:52;18.35;;;12.85;;
6864;SDS011;3471;49.678;8.388;2023-03-01T03:58:18;22.73;;;16.23;;
6864;SDS011;3471;49.678;8.388;2023-03-01T04:00:46;19.88;;;16.08;;
6864;SDS011;3471;49.678;8.388;2023-03-01T04:03:14;20.47;;;17.70;;
6864;SDS011;3471;49.678;8.388;2023-03-01T04:05:41;18.73;;;14.50;;
6864;SDS011;3471;49.678;8.388;2023-03-01T04:08:07;20.07;;;14.67;;
6864;SDS011;3471;49.678;8.388;2023-03-01T04:10:37;18.52;;;14.00;;
6864;SDS011;3471;49.678;8.388;2023-03-01T04:13:04;20.10;;;13.73;;
6864;SDS011;3471;49.678;8.388;2023-03-01T04:15:31;21.42;;;16.38;;
6864;SDS011;3471;49.678;8.388;2023-03-01T04:17:58;20.55;;;15.02;;
6864;SDS011;3471;49.678;8.388;2023-03-01T04:20:25;23.25;;;16.70;;
6864;SDS011;3471;49.678;8.388;2023-03-01T04:23:26;22.20;;;15.65;;
6864;SDS011;3471;49.678;8.388;2023-03-01T04:25:49;15.68;;;14.07;;
6864;SDS011;3471;49.678;8.388;2023-03-01T04:28:19;23.60;;;16.95;;
6864;SDS011;3471;49.678;8.388;2023-03-01T04:30:47;19.88;;;13.13;;
6864;SDS011;3471;49.678;8.388;2023-03-01T04:33:12;15.47;;;13.70;;
6864;SDS011;3471;49.678;8.388;2023-03-01T04:35:38;24.38;;;14.95;;
6864;SDS011;3471;49.678;8.388;2023-03-01T04:38:05;24.13;;;15.13;;
6864;SDS011;3471;49.678;8.388;2023-03-01T04:40:31;28.33;;;14.43;;
6864;SDS011;3471;49.678;8.388;2023-03-01T04:42:57;23.88;;;16.17;;
6864;SDS011;3471;49.678;8.388;2023-03-01T04:45:23;22.05;;;16.75;;
6864;SDS011;3471;49.678;8.388;2023-03-01T04:47:48;22.73;;;16.63;;
6864;SDS011;3471;49.678;8.388;2023-03-01T04:50:17;23.45;;;15.45;;
6864;SDS011;3471;49.678;8.388;2023-03-01T04:52:48;16.23;;;11.80;;
6864;SDS011;3471;49.678;8.388;2023-03-01T04:55:14;23.50;;;15.10;;
6864;SDS011;3471;49.678;8.388;2023-03-01T04:57:39;24.08;;;14.38;;
6864;SDS011;3471;49.678;8.388;2023-03-01T05:00:06;19.13;;;15.20;;
6864;SDS011;3471;49.678;8.388;2023-03-01T05:02:55;20.73;;;16.48;;
6864;SDS011;3471;49.678;8.388;2023-03-01T05:07:55;31.10;;;17.95;;
6864;SDS011;3471;49.678;8.388;2023-03-01T05:10:23;24.05;;;15.55;;
6864;SDS011;3471;49.678;8.388;2023-03-01T05:12:49;24.65;;;15.30;;
6864;SDS011;3471;49.678;8.388;2023-03-01T05:15:17;16.27;;;14.13;;
6864;SDS011;3471;49.678;8.388;2023-03-01T05:17:43;21.10;;;16.20;;
6864;SDS011;3471;49.678;8.388;2023-03-01T05:20:09;18.02;;;14.68;;
6864;SDS011;3471;49.678;8.388;2023-03-01T05:22:35;18.67;;;13.75;;
6864;SDS011;3471;49.678;8.388;2023-03-01T05:25:01;22.45;;;16.23;;
6864;SDS011;3471;49.678;8.388;2023-03-01T05:27:27;18.90;;;15.82;;
6864;SDS011;3471;49.678;8.388;2023-03-01T05:29:54;23.05;;;15.30;;
6864;SDS011;3471;49.678;8.388;2023-03-01T05:32:20;23.73;;;16.10;;
6864;SDS011;3471;49.678;8.388;2023-03-01T05:34:45;21.87;;;16.10;;
6864;SDS011;3471;49.678;8.388;2023-03-01T05:37:11;16.73;;;14.52;;
6864;SDS011;3471;49.678;8.388;2023-03-01T05:39:38;15.45;;;13.60;;
6864;SDS011;3471;49.678;8.388;2023-03-01T05:42:04;22.77;;;17.90;;
6864;SDS011;3471;49.678;8.388;2023-03-01T05:44:29;21.03;;;15.43;;
6864;SDS011;3471;49.678;8.388;2023-03-01T05:46:55;23.27;;;14.23;;
6864;SDS011;3471;49.678;8.388;2023-03-01T05:49:21;28.27;;;16.33;;
6864;SDS011;3471;49.678;8.388;2023-03-01T05:51:51;22.63;;;15.25;;
6864;SDS011;3471;49.678;8.388;2023-03-01T05:54:18;27.30;;;19.57;;
6864;SDS011;3471;49.678;8.388;2023-03-01T05:56:45;27.40;;;16.20;;
6864;SDS011;3471;49.678;8.388;2023-03-01T05:59:10;24.50;;;15.87;;
6864;SDS011;3471;49.678;8.388;2023-03-01T06:01:36;24.23;;;14.63;;
6864;SDS011;3471;49.678;8.388;2023-03-01T06:04:02;24.20;;;15.98;;
6864;SDS011;3471;49.678;8.388;2023-03-01T06:06:29;26.50;;;15.82;;
6864;SDS011;3471;49.678;8.388;2023-03-01T06:08:58;25.15;;;16.23;;
6864;SDS011;3471;49.678;8.388;2023-03-01T06:11:24;26.08;;;16.52;;
6864;SDS011;3471;49.678;8.388;2023-03-01T06:13:49;24.53;;;15.43;;
6864;SDS011;3471;49.678;8.388;2023-03-01T06:16:15;22.05;;;15.50;;
6864;SDS011;3471;49.678;8.388;2023-03-01T06:18:41;28.43;;;15.60;;
6864;SDS011;3471;49.678;8.388;2023-03-01T06:21:07;23.33;;;15.87;;
6864;SDS011;3471;49.678;8.388;2023-03-01T06:23:34;27.02;;;17.10;;
6864;SDS011;3471;49.678;8.388;2023-03-01T06:26:00;20.10;;;15.63;;
6864;SDS011;3471;49.678;8.388;2023-03-01T06:28:30;18.63;;;15.07;;
6864;SDS011;3471;49.678;8.388;2023-03-01T06:30:55;27.07;;;17.30;;
6864;SDS011;3471;49.678;8.388;2023-03-01T06:33:21;21.10;;;17.15;;
6864;SDS011;3471;49.678;8.388;2023-03-01T06:35:49;20.33;;;15.70;;
6864;SDS011;3471;49.678;8.388;2023-03-01T06:38:15;34.05;;;18.25;;
6864;SDS011;3471;49.678;8.388;2023-03-01T06:40:43;26.17;;;16.52;;
6864;SDS011;3471;49.678;8.388;2023-03-01T06:43:09;19.63;;;16.50;;
6864;SDS011;3471;49.678;8.388;2023-03-01T06:45:34;26.30;;;16.00;;
6864;SDS011;3471;49.678;8.388;2023-03-01T06:48:04;21.10;;;17.80;;
6864;SDS011;3471;49.678;8.388;2023-03-01T06:50:31;21.70;;;16.15;;
6864;SDS011;3471;49.678;8.388;2023-03-01T06:52:57;22.55;;;15.48;;
6864;SDS011;3471;49.678;8.388;2023-03-01T06:55:23;24.83;;;17.60;;
6864;SDS011;3471;49.678;8.388;2023-03-01T06:57:53;21.92;;;15.50;;
6864;SDS011;3471;49.678;8.388;2023-03-01T07:00:21;23.17;;;18.48;;
6864;SDS011;3471;49.678;8.388;2023-03-01T07:02:47;27.55;;;19.50;;
6864;SDS011;3471;49.678;8.388;2023-03-01T07:05:12;27.93;;;17.43;;
6864;SDS011;3471;49.678;8.388;2023-03-01T07:07:38;20.70;;;16.33;;
6864;SDS011;3471;49.678;8.388;2023-03-01T07:10:03;27.17;;;18.60;;
6864;SDS011;3471;49.678;8.388;2023-03-01T07:12:29;28.95;;;16.25;;
6864;SDS011;3471;49.678;8.388;2023-03-01T07:14:55;23.40;;;18.13;;
6864;SDS011;3471;49.678;8.388;2023-03-01T07:17:20;26.70;;;17.83;;
6864;SDS011;3471;49.678;8.388;2023-03-01T07:19:46;31.98;;;17.83;;
6864;SDS011;3471;49.678;8.388;2023-03-01T07:22:12;26.07;;;17.40;;
6864;SDS011;3471;49.678;8.388;2023-03-01T07:24:37;21.52;;;17.85;;
6864;SDS011;3471;49.678;8.388;2023-03-01T07:27:03;25.43;;;18.00;;
6864;SDS011;3471;49.678;8.388;2023-03-01T07:29:28;19.52;;;17.40;;
6864;SDS011;3471;49.678;8.388;2023-03-01T07:31:54;26.17;;;17.47;;
6864;SDS011;3471;49.678;8.388;2023-03-01T07:34:19;22.48;;;16.52;;
6864;SDS011;3471;49.678;8.388;2023-03-01T07:36:45;21.43;;;16.23;;
6864;SDS011;3471;49.678;8.388;2023-03-01T07:39:11;28.73;;;17.70;;
6864;SDS011;3471;49.678;8.388;2023-03-01T07:41:36;25.08;;;15.75;;
6864;SDS011;3471;49.678;8.388;2023-03-01T07:44:02;25.80;;;18.27;;
6864;SDS011;3471;49.678;8.388;2023-03-01T07:46:28;25.00;;;17.00;;
6864;SDS011;3471;49.678;8.388;2023-03-01T07:48:54;22.35;;;15.73;;
6864;SDS011;3471;49.678;8.388;2023-03-01T07:51:19;20.13;;;15.97;;
6864;SDS011;3471;49.678;8.388;2023-03-01T07:53:48;25.50;;;15.77;;
6864;SDS011;3471;49.678;8.388;2023-03-01T07:56:14;21.67;;;14.50;;
6864;SDS011;3471;49.678;8.388;2023-03-01T07:58:43;23.27;;;16.75;;
6864;SDS011;3471;49.678;8.388;2023-03-01T08:01:10;20.65;;;16.52;;
6864;SDS011;3471;49.678;8.388;2023-03-01T08:03:37;20.30;;;13.70;;
6864;SDS011;3471;49.678;8.388;2023-03-01T08:06:04;20.33;;;16.05;;
6864;SDS011;3471;49.678;8.388;2023-03-01T08:08:31;20.00;;;14.65;;
6864;SDS011;3471;49.678;8.388;2023-03-01T08:10:58;22.17;;;15.82;;
6864;SDS011;3471;49.678;8.388;2023-03-01T08:13:24;34.45;;;15.88;;
6864;SDS011;3471;49.678;8.388;2023-03-01T08:15:50;18.50;;;14.15;;
6864;SDS011;3471;49.678;8.388;2023-03-01T08:18:17;34.40;;;20.80;;
6864;SDS011;3471;49.678;8.388;2023-03-01T08:20:43;20.88;;;16.52;;
6864;SDS011;3471;49.678;8.388;2023-03-01T08:23:09;27.60;;;17.50;;
6864;SDS011;3471;49.678;8.388;2023-03-01T08:25:35;21.00;;;16.13;;
6864;SDS011;3471;49.678;8.388;2023-03-01T08:28:01;24.77;;;14.93;;
6864;SDS011;3471;49.678;8.388;2023-03-01T08:30:26;27.70;;;16.45;;
6864;SDS011;3471;49.678;8.388;2023-03-01T08:32:52;18.10;;;13.40;;
6864;SDS011;3471;49.678;8.388;2023-03-01T08:35:18;20.10;;;14.75;;
6864;SDS011;3471;49.678;8.388;2023-03-01T08:37:44;24.70;;;15.27;;
6864;SDS011;3471;49.678;8.388;2023-03-01T08:40:11;20.90;;;16.02;;
6864;SDS011;3471;49.678;8.388;2023-03-01T08:42:38;20.58;;;15.38;;
6864;SDS011;3471;49.678;8.388;2023-03-01T08:45:04;23.23;;;14.80;;
6864;SDS011;3471;49.678;8.388;2023-03-01T08:47:30;20.83;;;16.42;;
6864;SDS011;3471;49.678;8.388;2023-03-01T08:49:58;22.97;;;15.20;;
6864;SDS011;3471;49.678;8.388;2023-03-01T08:52:24;21.70;;;14.20;;
6864;SDS011;3471;49.678;8.388;2023-03-01T08:54:50;33.83;;;14.70;;
6864;SDS011;3471;49.678;8.388;2023-03-01T08:57:16;27.07;;;15.10;;
6864;SDS011;3471;49.678;8.388;2023-03-01T08:59:42;20.35;;;15.43;;
6864;SDS011;3471;49.678;8.388;2023-03-01T09:02:12;28.63;;;15.40;;
6864;SDS011;3471;49.678;8.388;2023-03-01T09:04:39;20.70;;;14.63;;
6864;SDS011;3471;49.678;8.388;2023-03-01T09:07:05;23.73;;;15.30;;
6864;SDS011;3471;49.678;8.388;2023-03-01T09:09:31;18.50;;;13.13;;
6864;SDS011;3471;49.678;8.388;2023-03-01T09:11:57;18.90;;;14.10;;
6864;SDS011;3471;49.678;8.388;2023-03-01T09:14:22;28.80;;;15.97;;
6864;SDS011;3471;49.678;8.388;2023-03-01T09:16:48;21.75;;;16.67;;
6864;SDS011;3471;49.678;8.388;2023-03-01T09:19:13;24.67;;;16.15;;
6864;SDS011;3471;49.678;8.388;2023-03-01T09:21:39;17.53;;;13.40;;
6864;SDS011;3471;49.678;8.388;2023-03-01T09:24:06;17.15;;;13.32;;
6864;SDS011;3471;49.678;8.388;2023-03-01T09:26:38;19.35;;;14.27;;
6864;SDS011;3471;49.678;8.388;2023-03-01T09:29:04;18.97;;;13.67;;
6864;SDS011;3471;49.678;8.388;2023-03-01T09:31:29;26.17;;;15.32;;
6864;SDS011;3471;49.678;8.388;2023-03-01T09:33:55;25.90;;;15.00;;
6864;SDS011;3471;49.678;8.388;2023-03-01T09:36:21;24.67;;;14.57;;
6864;SDS011;3471;49.678;8.388;2023-03-01T09:38:48;18.65;;;14.48;;
6864;SDS011;3471;49.678;8.388;2023-03-01T09:43:52;22.15;;;14.70;;
6864;SDS011;3471;49.678;8.388;2023-03-01T09:46:24;21.70;;;15.27;;
6864;SDS011;3471;49.678;8.388;2023-03-01T09:48:52;23.33;;;13.35;;
6864;SDS011;3471;49.678;8.388;2023-03-01T09:51:32;18.02;;;14.25;;
6864;SDS011;3471;49.678;8.388;2023-03-01T09:54:02;16.55;;;12.88;;
6864;SDS011;3471;49.678;8.388;2023-03-01T09:56:40;19.25;;;13.38;;
6864;SDS011;3471;49.678;8.388;2023-03-01T10:07:05;18.95;;;13.35;;
6864;SDS011;3471;49.678;8.388;2023-03-01T10:09:34;24.85;;;16.17;;
6864;SDS011;3471;49.678;8.388;2023-03-01T10:12:30;21.58;;;14.35;;
6864;SDS011;3471;49.678;8.388;2023-03-01T10:22:50;25.35;;;15.43;;
6864;SDS011;3471;49.678;8.388;2023-03-01T10:27:52;24.60;;;13.77;;
6864;SDS011;3471;49.678;8.388;2023-03-01T10:32:45;33.40;;;16.45;;
6864;SDS011;3471;49.678;8.388;2023-03-01T10:35:24;22.23;;;14.35;;
6864;SDS011;3471;49.678;8.388;2023-03-01T10:40:59;19.70;;;13.60;;
6864;SDS011;3471;49.678;8.388;2023-03-01T10:43:49;17.65;;;13.65;;
6864;SDS011;3471;49.678;8.388;2023-03-01T10:51:51;27.52;;;17.70;;
6864;SDS011;3471;49.678;8.388;2023-03-01T10:56:59;27.55;;;17.42;;
6864;SDS011;3471;49.678;8.388;2023-03-01T10:59:30;19.67;;;14.70;;
6864;SDS011;3471;49.678;8.388;2023-03-01T11:04:34;20.55;;;15.73;;
6864;SDS011;3471;49.678;8.388;2023-03-01T11:07:01;23.05;;;15.52;;
6864;SDS011;3471;49.678;8.388;2023-03-01T11:09:30;25.98;;;13.50;;
6864;SDS011;3471;49.678;8.388;2023-03-01T11:12:02;39.17;;;19.17;;
6864;SDS011;3471;49.678;8.388;2023-03-01T11:14:35;17.73;;;13.40;;
6864;SDS011;3471;49.678;8.388;2023-03-01T11:19:28;20.73;;;16.75;;
6864;SDS011;3471;49.678;8.388;2023-03-01T11:22:13;22.20;;;14.15;;
6864;SDS011;3471;49.678;8.388;2023-03-01T11:24:46;20.30;;;15.48;;
6864;SDS011;3471;49.678;8.388;2023-03-01T11:30:04;18.00;;;13.80;;
6864;SDS011;3471;49.678;8.388;2023-03-01T11:32:34;26.73;;;17.27;;
6864;SDS011;3471;49.678;8.388;2023-03-01T11:35:10;25.05;;;15.98;;
6864;SDS011;3471;49.678;8.388;2023-03-01T11:40:49;19.55;;;15.73;;
6864;SDS011;3471;49.678;8.388;2023-03-01T11:48:32;16.80;;;13.52;;
6864;SDS011;3471;49.678;8.388;2023-03-01T11:51:19;26.20;;;17.27;;
6864;SDS011;3471;49.678;8.388;2023-03-01T11:54:04;25.38;;;15.48;;
6864;SDS011;3471;49.678;8.388;2023-03-01T11:56:34;21.48;;;14.35;;
6864;SDS011;3471;49.678;8.388;2023-03-01T12:06:57;23.42;;;15.40;;
6864;SDS011;3471;49.678;8.388;2023-03-01T12:09:30;21.23;;;14.55;;
6864;SDS011;3471;49.678;8.388;2023-03-01T12:12:42;20.20;;;14.37;;
6864;SDS011;3471;49.678;8.388;2023-03-01T12:15:20;16.90;;;13.15;;
6864;SDS011;3471;49.678;8.388;2023-03-01T12:17:58;21.15;;;13.65;;
6864;SDS011;3471;49.678;8.388;2023-03-01T12:20:34;19.58;;;13.50;;
6864;SDS011;3471;49.678;8.388;2023-03-01T12:23:28;20.00;;;14.32;;
6864;SDS011;3471;49.678;8.388;2023-03-01T12:26:26;16.40;;;12.98;;
6864;SDS011;3471;49.678;8.388;2023-03-01T12:29:07;19.67;;;12.75;;
6864;SDS011;3471;49.678;8.388;2023-03-01T12:35:16;17.23;;;12.57;;
6864;SDS011;3471;49.678;8.388;2023-03-01T12:40:11;16.77;;;14.38;;
6864;SDS011;3471;49.678;8.388;2023-03-01T12:48:50;15.18;;;11.73;;
6864;SDS011;3471;49.678;8.388;2023-03-01T12:51:32;20.60;;;13.30;;
6864;SDS011;3471;49.678;8.388;2023-03-01T12:54:02;13.90;;;11.00;;
6864;SDS011;3471;49.678;8.388;2023-03-01T12:56:40;22.30;;;12.00;;
6864;SDS011;3471;49.678;8.388;2023-03-01T13:07:37;12.68;;;11.38;;
6864;SDS011;3471;49.678;8.388;2023-03-01T13:17:50;14.15;;;8.93;;
6864;SDS011;3471;49.678;8.388;2023-03-01T13:20:21;15.35;;;11.10;;
6864;SDS011;3471;49.678;8.388;2023-03-01T13:25:59;10.75;;;9.65;;
6864;SDS011;3471;49.678;8.388;2023-03-01T13:33:48;13.75;;;9.65;;
6864;SDS011;3471;49.678;8.388;2023-03-01T13:44:28;18.83;;;10.73;;
6864;SDS011;3471;49.678;8.388;2023-03-01T13:49:36;13.48;;;8.95;;
6864;SDS011;3471;49.678;8.388;2023-03-01T13:57:42;18.38;;;10.77;;
6864;SDS011;3471;49.678;8.388;2023-03-01T14:00:27;10.83;;;9.60;;
6864;SDS011;3471;49.678;8.388;2023-03-01T14:03:01;12.63;;;9.55;;
6864;SDS011;3471;49.678;8.388;2023-03-01T14:05:31;18.35;;;9.77;;
6864;SDS011;3471;49.678;8.388;2023-03-01T14:07:57;10.65;;;9.65;;
6864;SDS011;3471;49.678;8.388;2023-03-01T14:10:25;11.20;;;8.83;;
6864;SDS011;3471;49.678;8.388;2023-03-01T14:13:17;13.57;;;11.30;;
6864;SDS011;3471;49.678;8.388;2023-03-01T14:18:47;20.25;;;9.35;;
6864;SDS011;3471;49.678;8.388;2023-03-01T14:21:29;10.52;;;8.75;;
6864;SDS011;3471;49.678;8.388;2023-03-01T14:23:55;14.13;;;10.60;;
6864;SDS011;3471;49.678;8.388;2023-03-01T14:26:22;10.50;;;9.43;;
6864;SDS011;3471;49.678;8.388;2023-03-01T14:28:48;17.00;;;9.37;;
6864;SDS011;3471;49.678;8.388;2023-03-01T14:34:01;13.00;;;10.02;;
6864;SDS011;3471;49.678;8.388;2023-03-01T14:36:28;14.30;;;9.75;;
6864;SDS011;3471;49.678;8.388;2023-03-01T14:38:55;14.10;;;10.50;;
6864;SDS011;3471;49.678;8.388;2023-03-01T14:41:25;13.43;;;9.27;;
6864;SDS011;3471;49.678;8.388;2023-03-01T14:43:55;10.38;;;9.32;;
6864;SDS011;3471;49.678;8.388;2023-03-01T14:48:54;13.05;;;9.85;;
6864;SDS011;3471;49.678;8.388;2023-03-01T14:51:35;15.25;;;9.20;;
6864;SDS011;3471;49.678;8.388;2023-03-01T14:54:23;13.63;;;9.23;;
6864;SDS011;3471;49.678;8.388;2023-03-01T14:56:58;14.73;;;8.65;;
6864;SDS011;3471;49.678;8.388;2023-03-01T14:59:25;12.57;;;8.05;;
6864;SDS011;3471;49.678;8.388;2023-03-01T15:01:53;15.15;;;9.05;;
6864;SDS011;3471;49.678;8.388;2023-03-01T15:04:21;11.90;;;9.40;;
6864;SDS011;3471;49.678;8.388;2023-03-01T15:06:52;9.75;;;8.82;;
6864;SDS011;3471;49.678;8.388;2023-03-01T15:09:19;9.35;;;8.00;;
6864;SDS011;3471;49.678;8.388;2023-03-01T15:11:47;10.70;;;7.88;;
6864;SDS011;3471;49.678;8.388;2023-03-01T15:14:46;8.75;;;7.82;;
6864;SDS011;3471;49.678;8.388;2023-03-01T15:17:26;17.63;;;7.53;;
6864;SDS011;3471;49.678;8.388;2023-03-01T15:19:52;10.45;;;9.35;;
6864;SDS011;3471;49.678;8.388;2023-03-01T15:22:18;15.15;;;8.43;;
6864;SDS011;3471;49.678;8.388;2023-03-01T15:24:48;10.82;;;9.60;;
6864;SDS011;3471;49.678;8.388;2023-03-01T15:27:24;17.05;;;10.32;;
6864;SDS011;3471;49.678;8.388;2023-03-01T15:30:00;8.73;;;7.90;;
6864;SDS011;3471;49.678;8.388;2023-03-01T15:32:31;11.82;;;10.32;;
6864;SDS011;3471;49.678;8.388;2023-03-01T15:34:59;16.85;;;8.50;;
6864;SDS011;3471;49.678;8.388;2023-03-01T15:37:45;15.02;;;9.07;;
6864;SDS011;3471;49.678;8.388;2023-03-01T15:40:31;15.35;;;8.93;;
6864;SDS011;3471;49.678;8.388;2023-03-01T15:42:57;9.25;;;7.40;;
6864;SDS011;3471;49.678;8.388;2023-03-01T15:45:29;8.40;;;7.70;;
6864;SDS011;3471;49.678;8.388;2023-03-01T15:48:00;12.20;;;9.88;;
6864;SDS011;3471;49.678;8.388;2023-03-01T15:50:32;13.77;;;10.38;;
6864;SDS011;3471;49.678;8.388;2023-03-01T15:53:00;13.38;;;9.35;;
6864;SDS011;3471;49.678;8.388;2023-03-01T15:55:30;12.23;;;9.00;;
6864;SDS011;3471;49.678;8.388;2023-03-01T15:58:05;10.00;;;7.95;;
6864;SDS011;3471;49.678;8.388;2023-03-01T16:00:32;12.80;;;8.27;;
6864;SDS011;3471;49.678;8.388;2023-03-01T16:02:57;10.30;;;8.60;;
6864;SDS011;3471;49.678;8.388;2023-03-01T16:05:26;13.05;;;8.45;;
6864;SDS011;3471;49.678;8.388;2023-03-01T16:07:51;14.90;;;8.53;;
6864;SDS011;3471;49.678;8.388;2023-03-01T16:10:17;10.38;;;7.93;;
6864;SDS011;3471;49.678;8.388;2023-03-01T16:12:44;13.93;;;8.82;;
6864;SDS011;3471;49.678;8.388;2023-03-01T16:15:22;15.60;;;8.73;;
6864;SDS011;3471;49.678;8.388;2023-03-01T16:17:52;22.60;;;10.65;;
6864;SDS011;3471;49.678;8.388;2023-03-01T16:20:17;14.87;;;8.73;;
6864;SDS011;3471;49.678;8.388;2023-03-01T16:22:43;17.65;;;9.35;;
6864;SDS011;3471;49.678;8.388;2023-03-01T16:25:11;12.07;;;8.00;;
6864;SDS011;3471;49.678;8.388;2023-03-01T16:27:38;17.15;;;9.88;;
6864;SDS011;3471;49.678;8.388;2023-03-01T16:30:04;12.93;;;9.95;;
6864;SDS011;3471;49.678;8.388;2023-03-01T16:32:31;8.85;;;7.95;;
6864;SDS011;3471;49.678;8.388;2023-03-01T16:34:56;10.30;;;9.20;;
6864;SDS011;3471;49.678;8.388;2023-03-01T16:37:22;13.63;;;9.05;;
6864;SDS011;3471;49.678;8.388;2023-03-01T16:39:48;10.70;;;8.80;;
6864;SDS011;3471;49.678;8.388;2023-03-01T16:42:16;26.55;;;9.70;;
6864;SDS011;3471;49.678;8.388;2023-03-01T16:44:42;19.02;;;10.50;;
6864;SDS011;3471;49.678;8.388;2023-03-01T16:47:08;17.92;;;11.27;;
6864;SDS011;3471;49.678;8.388;2023-03-01T16:49:33;20.60;;;10.60;;
6864;SDS011;3471;49.678;8.388;2023-03-01T16:51:59;12.00;;;8.57;;
6864;SDS011;3471;49.678;8.388;2023-03-01T16:54:24;15.18;;;10.60;;
6864;SDS011;3471;49.678;8.388;2023-03-01T16:56:50;27.70;;;11.27;;
6864;SDS011;3471;49.678;8.388;2023-03-01T16:59:16;14.33;;;11.53;;
6864;SDS011;3471;49.678;8.388;2023-03-01T17:01:43;15.80;;;8.98;;
6864;SDS011;3471;49.678;8.388;2023-03-01T17:04:11;12.60;;;8.73;;
6864;SDS011;3471;49.678;8.388;2023-03-01T17:06:37;12.93;;;8.27;;
6864;SDS011;3471;49.678;8.388;2023-03-01T17:09:03;16.23;;;9.60;;
6864;SDS011;3471;49.678;8.388;2023-03-01T17:11:29;15.97;;;9.07;;
6864;SDS011;3471;49.678;8.388;2023-03-01T17:13:55;14.65;;;9.75;;